createdAt,value
2019-01-06T00:01:30.544Z,-0.20
2019-01-06T00:04:12.607Z,-0.20
2019-01-06T00:06:51.675Z,-0.20
2019-01-06T00:09:27.751Z,-0.20
2019-01-06T00:11:57.973Z,-0.20
2019-01-06T00:14:34.053Z,-0.20
2019-01-06T00:17:07.216Z,-0.20
2019-01-06T00:19:40.025Z,-0.30
2019-01-06T00:22:26.721Z,-0.30
2019-01-06T00:24:59.709Z,-0.40
2019-01-06T00:27:46.209Z,-0.40
2019-01-06T00:30:34.570Z,-0.40
2019-01-06T00:33:05.588Z,-0.40
2019-01-06T00:35:50.831Z,-0.50
2019-01-06T00:38:20.901Z,-0.50
2019-01-06T00:41:07.362Z,-0.50
2019-01-06T00:43:53.785Z,-0.60
2019-01-06T00:46:23.851Z,-0.60
2019-01-06T00:49:09.184Z,-0.70
2019-01-06T00:51:57.364Z,-0.60
2019-01-06T00:54:27.386Z,-0.60
2019-01-06T00:57:13.536Z,-0.70
2019-01-06T00:59:43.613Z,-0.70
2019-01-06T01:02:30.124Z,-0.70
2019-01-06T01:05:03.286Z,-0.80
2019-01-06T01:07:33.352Z,-0.70
2019-01-06T01:10:12.471Z,-0.70
2019-01-06T01:12:42.646Z,-0.80
2019-01-06T01:15:12.713Z,-0.80
2019-01-06T01:17:45.875Z,-0.80
2019-01-06T01:20:22.003Z,-0.80
2019-01-06T01:23:08.395Z,-0.80
2019-01-06T01:25:41.186Z,-0.80
2019-01-06T01:28:20.235Z,-0.90
2019-01-06T01:31:05.515Z,-0.90
2019-01-06T01:33:44.867Z,-0.90
2019-01-06T01:36:21.989Z,-0.90
2019-01-06T01:38:52.492Z,-0.90
2019-01-06T01:41:31.643Z,-1.00
2019-01-06T01:44:01.823Z,-1.00
2019-01-06T01:46:49.986Z,-1.00
2019-01-06T01:49:36.612Z,-1.00
2019-01-06T01:52:06.827Z,-1.00
2019-01-06T01:54:39.738Z,-1.00
2019-01-06T01:57:26.462Z,-1.00
2019-01-06T02:00:08.312Z,-1.00
2019-01-06T02:02:41.542Z,-1.00
2019-01-06T02:05:28.100Z,-1.00
2019-01-06T02:08:14.496Z,-1.00
2019-01-06T02:10:53.322Z,-1.00
2019-01-06T02:13:38.631Z,-1.00
2019-01-06T02:16:17.407Z,-1.00
2019-01-06T02:18:47.471Z,-1.10
2019-01-06T02:21:33.803Z,-1.10
2019-01-06T02:24:10.422Z,-1.10
2019-01-06T02:26:55.623Z,-1.10
2019-01-06T02:29:43.480Z,-1.10
2019-01-06T02:32:16.313Z,-1.10
2019-01-06T02:35:01.321Z,-1.20
2019-01-06T02:37:48.952Z,-1.20
2019-01-06T02:40:25.100Z,-1.20
2019-01-06T02:43:11.695Z,-1.20
2019-01-06T02:45:41.859Z,-1.10
2019-01-06T02:48:17.647Z,-1.20
2019-01-06T02:50:56.668Z,-1.20
2019-01-06T02:53:36.381Z,-1.20
2019-01-06T02:56:09.438Z,-1.20
2019-01-06T02:58:48.430Z,-1.20
2019-01-06T03:01:21.227Z,-1.10
2019-01-06T03:04:06.995Z,-1.00
2019-01-06T03:06:53.167Z,-1.00
2019-01-06T03:09:31.956Z,-1.10
2019-01-06T03:12:17.452Z,-1.10
2019-01-06T03:15:05.945Z,-1.10
2019-01-06T03:17:52.573Z,-1.10
2019-01-06T03:20:37.686Z,-1.10
2019-01-06T03:23:19.657Z,-1.10
2019-01-06T03:26:05.964Z,-1.10
2019-01-06T03:28:36.115Z,-1.10
2019-01-06T03:31:14.873Z,-1.10
2019-01-06T03:33:59.904Z,-1.20
2019-01-06T03:36:46.643Z,-1.00
2019-01-06T03:39:34.189Z,-1.00
2019-01-06T03:42:04.301Z,-1.00
2019-01-06T03:44:40.823Z,-1.00
2019-01-06T03:47:13.724Z,-1.00
2019-01-06T03:49:46.502Z,-1.10
2019-01-06T03:52:22.525Z,-1.00
2019-01-06T03:54:52.813Z,-1.10
2019-01-06T03:57:23.237Z,-1.10
2019-01-06T03:59:53.656Z,-1.10
2019-01-06T04:02:26.807Z,-1.20
2019-01-06T04:05:02.501Z,-1.20
2019-01-06T04:07:49.171Z,-1.20
2019-01-06T04:10:37.749Z,-1.30
2019-01-06T04:13:16.825Z,-1.30
2019-01-06T04:15:56.084Z,-1.30
2019-01-06T04:18:26.602Z,-1.30
2019-01-06T04:20:57.052Z,-1.40
2019-01-06T04:23:27.232Z,-1.40
2019-01-06T04:26:09.449Z,-1.50
2019-01-06T04:28:42.502Z,-1.50
2019-01-06T04:31:28.937Z,-1.60
2019-01-06T04:34:01.956Z,-1.70
2019-01-06T04:36:38.121Z,-1.70
2019-01-06T04:39:08.913Z,-1.80
2019-01-06T04:41:55.577Z,-1.90
2019-01-06T04:44:40.584Z,-2.00
2019-01-06T04:47:22.477Z,-1.90
2019-01-06T04:50:04.831Z,-1.90
2019-01-06T04:52:51.507Z,-1.90
2019-01-06T04:55:38.067Z,-1.90
2019-01-06T04:58:17.049Z,-1.80
2019-01-06T05:01:03.501Z,-1.80
2019-01-06T05:03:34.005Z,-1.80
2019-01-06T05:06:04.037Z,-1.70
2019-01-06T05:08:50.560Z,-1.80
2019-01-06T05:11:29.683Z,-1.70
2019-01-06T05:14:02.524Z,-1.70
2019-01-06T05:16:47.497Z,-1.70
2019-01-06T05:19:18.078Z,-1.70
2019-01-06T05:22:04.509Z,-1.70
2019-01-06T05:24:47.069Z,-1.70
2019-01-06T05:27:33.750Z,-1.70
2019-01-06T05:30:03.853Z,-1.60
2019-01-06T05:32:50.389Z,-1.70
2019-01-06T05:35:26.086Z,-1.70
2019-01-06T05:37:56.256Z,-1.70
2019-01-06T05:40:29.006Z,-1.70
2019-01-06T05:43:15.670Z,-1.70
2019-01-06T05:45:48.522Z,-1.70
2019-01-06T05:48:30.827Z,-1.70
2019-01-06T05:51:09.899Z,-1.70
2019-01-06T05:53:56.338Z,-1.70
2019-01-06T05:56:41.463Z,-1.70
2019-01-06T05:59:14.448Z,-1.80
2019-01-06T06:01:44.477Z,-1.80
2019-01-06T06:04:14.572Z,-1.80
2019-01-06T06:06:47.486Z,-1.80
2019-01-06T06:09:20.447Z,-1.80
2019-01-06T06:12:07.359Z,-1.80
2019-01-06T06:14:43.344Z,-1.80
2019-01-06T06:17:16.640Z,-1.80
2019-01-06T06:19:59.315Z,-1.90
2019-01-06T06:22:46.083Z,-1.90
2019-01-06T06:25:32.861Z,-1.90
2019-01-06T06:28:03.505Z,-1.90
2019-01-06T06:30:39.958Z,-1.90
2019-01-06T06:33:16.539Z,-1.90
2019-01-06T06:36:03.449Z,-1.90
2019-01-06T06:38:33.999Z,-1.90
2019-01-06T06:41:06.911Z,-1.90
2019-01-06T06:43:54.284Z,-1.90
2019-01-06T06:46:24.572Z,-1.90
2019-01-06T06:49:11.052Z,-2.00
2019-01-06T06:51:53.335Z,-2.00
2019-01-06T06:54:23.403Z,-1.90
2019-01-06T06:57:16.255Z,-2.00
2019-01-06T06:59:49.798Z,-1.90
2019-01-06T07:02:32.068Z,-1.90
2019-01-06T07:05:02.673Z,-1.90
2019-01-06T07:07:42.242Z,-1.90
2019-01-06T07:10:21.555Z,-1.90
2019-01-06T07:12:54.449Z,-1.90
2019-01-06T07:15:33.605Z,-1.90
2019-01-06T07:18:11.374Z,-1.90
2019-01-06T07:20:59.984Z,-1.90
2019-01-06T07:23:30.102Z,-1.90
2019-01-06T07:26:00.127Z,-1.90
2019-01-06T07:28:36.007Z,-1.90
2019-01-06T07:31:12.415Z,-1.90
2019-01-06T07:33:45.839Z,-1.90
2019-01-06T07:36:28.059Z,-1.90
2019-01-06T07:38:58.439Z,-2.00
2019-01-06T07:41:28.470Z,-2.00
2019-01-06T07:44:18.277Z,-2.00
2019-01-06T07:47:04.548Z,-2.00
2019-01-06T07:49:49.662Z,-2.00
2019-01-06T07:52:22.573Z,-2.10
2019-01-06T07:55:01.533Z,-2.10
2019-01-06T07:57:40.881Z,-2.10
2019-01-06T08:00:28.326Z,-2.10
2019-01-06T08:02:58.327Z,-2.20
2019-01-06T08:05:44.299Z,-2.20
2019-01-06T08:08:23.488Z,-2.10
2019-01-06T08:10:59.678Z,-2.10
2019-01-06T08:13:46.348Z,-2.30
2019-01-06T08:16:22.567Z,-2.10
2019-01-06T08:19:05.177Z,-2.30
2019-01-06T08:21:51.677Z,-2.30
2019-01-06T08:24:31.669Z,-2.30
2019-01-06T08:27:13.954Z,-2.20
2019-01-06T08:29:53.543Z,-2.20
2019-01-06T08:32:32.815Z,-2.20
2019-01-06T08:35:11.588Z,-2.30
2019-01-06T08:37:53.918Z,-2.30
2019-01-06T08:40:30.574Z,-2.20
2019-01-06T08:43:12.971Z,-2.40
2019-01-06T08:45:56.244Z,-2.40
2019-01-06T08:48:39.140Z,-2.30
2019-01-06T08:51:25.670Z,-2.40
2019-01-06T08:53:56.448Z,-2.50
2019-01-06T08:56:29.528Z,-2.50
2019-01-06T08:58:59.885Z,-2.50
2019-01-06T09:01:45.213Z,-2.40
2019-01-06T09:04:18.750Z,-2.40
2019-01-06T09:07:01.111Z,-2.50
2019-01-06T09:09:48.891Z,-2.60
2019-01-06T09:12:27.883Z,-2.60
2019-01-06T09:15:06.085Z,-2.50
2019-01-06T09:17:39.236Z,-2.40
2019-01-06T09:20:16.659Z,-2.60
2019-01-06T09:23:05.683Z,-2.60
2019-01-06T09:25:40.920Z,-2.50
2019-01-06T09:28:24.310Z,-2.40
2019-01-06T09:30:58.109Z,-2.40
2019-01-06T09:33:28.079Z,-2.50
2019-01-06T09:36:02.342Z,-2.60
2019-01-06T09:38:35.706Z,-2.60
2019-01-06T09:41:09.921Z,-2.50
2019-01-06T09:43:57.658Z,-2.70
2019-01-06T09:46:39.034Z,-2.70
2019-01-06T09:49:12.424Z,-2.80
2019-01-06T09:51:54.200Z,-2.80
2019-01-06T09:54:44.630Z,-2.70
2019-01-06T09:57:32.759Z,-2.80
2019-01-06T10:00:23.163Z,-2.80
2019-01-06T10:02:54.581Z,-2.80
2019-01-06T10:05:42.334Z,-2.80
2019-01-06T10:08:17.814Z,-2.70
2019-01-06T10:11:02.737Z,-2.90
2019-01-06T10:13:38.825Z,-2.80
2019-01-06T10:16:16.100Z,-2.70
2019-01-06T10:19:03.344Z,-2.70
2019-01-06T10:21:51.283Z,-2.50
2019-01-06T10:24:30.545Z,-2.60
2019-01-06T10:27:04.450Z,-2.60
2019-01-06T10:29:47.719Z,-2.60
2019-01-06T10:32:32.240Z,-2.60
2019-01-06T10:35:25.100Z,-2.70
2019-01-06T10:38:14.375Z,-2.60
2019-01-06T10:40:57.910Z,-2.60
2019-01-06T10:43:28.124Z,-2.70
2019-01-06T10:46:18.735Z,-2.50
2019-01-06T10:49:10.033Z,-2.50
2019-01-06T10:51:46.413Z,-2.40
2019-01-06T10:54:25.545Z,-2.50
2019-01-06T10:57:13.051Z,-2.60
2019-01-06T10:59:47.613Z,-2.40
2019-01-06T11:02:35.137Z,-2.50
2019-01-06T11:05:19.359Z,-2.50
2019-01-06T11:07:54.759Z,-2.50
2019-01-06T11:10:43.829Z,-2.40
2019-01-06T11:13:30.595Z,-2.60
2019-01-06T11:16:06.856Z,-2.50
2019-01-06T11:18:36.919Z,-2.50
2019-01-06T11:21:16.097Z,-2.60
2019-01-06T11:23:52.962Z,-2.50
2019-01-06T11:26:28.968Z,-2.50
2019-01-06T11:29:15.528Z,-2.60
2019-01-06T11:32:05.012Z,-2.50
2019-01-06T11:34:54.847Z,-2.70
2019-01-06T11:37:25.473Z,-2.50
2019-01-06T11:39:58.004Z,-2.50
2019-01-06T11:42:45.702Z,-2.40
2019-01-06T11:45:15.936Z,-2.70
2019-01-06T11:47:55.573Z,-2.60
2019-01-06T11:50:28.754Z,-2.50
2019-01-06T11:53:03.545Z,-2.60
2019-01-06T11:55:42.043Z,-2.40
2019-01-06T11:58:31.057Z,-2.20
2019-01-06T12:01:06.669Z,-2.20
2019-01-06T12:03:45.328Z,-2.20
2019-01-06T12:06:24.562Z,-2.30
2019-01-06T12:09:03.782Z,-2.40
2019-01-06T12:11:55.116Z,-2.30
2019-01-06T12:14:27.965Z,-2.20
2019-01-06T12:17:02.698Z,-2.20
2019-01-06T12:19:43.715Z,-2.40
2019-01-06T12:22:21.431Z,-2.50
2019-01-06T12:24:56.079Z,-2.40
2019-01-06T12:27:35.247Z,-2.40
2019-01-06T12:30:23.070Z,-2.30
2019-01-06T12:33:10.187Z,-2.40
2019-01-06T12:36:02.211Z,-2.70
2019-01-06T12:38:50.389Z,-2.70
2019-01-06T12:41:40.321Z,-2.90
2019-01-06T12:44:29.721Z,-3.00
2019-01-06T12:47:09.351Z,-3.10
2019-01-06T12:49:51.266Z,-3.30
2019-01-06T12:52:41.130Z,-3.50
2019-01-06T12:55:16.370Z,-3.60
2019-01-06T12:57:49.292Z,-3.70
2019-01-06T13:00:37.634Z,-4.00
2019-01-06T13:03:15.719Z,-4.10
2019-01-06T13:05:48.054Z,-4.10
2019-01-06T13:08:23.107Z,-4.20
2019-01-06T13:11:12.359Z,-4.20
2019-01-06T13:13:57.148Z,-4.30
2019-01-06T13:16:44.509Z,-4.40
2019-01-06T13:19:22.944Z,-4.30
2019-01-06T13:21:58.432Z,-4.30
2019-01-06T13:24:29.879Z,-4.30
2019-01-06T13:27:01.576Z,-4.30
2019-01-06T13:29:46.595Z,-4.20
2019-01-06T13:32:22.254Z,-4.30
2019-01-06T13:34:53.994Z,-4.20
2019-01-06T13:37:51.981Z,-4.20
2019-01-06T13:40:39.124Z,-4.40
2019-01-06T13:43:17.564Z,-4.40
2019-01-06T13:46:02.700Z,-4.30
2019-01-06T13:48:53.673Z,-4.30
2019-01-06T13:51:35.257Z,-4.40
2019-01-06T13:54:11.832Z,-4.40
2019-01-06T13:56:58.996Z,-4.40
2019-01-06T13:59:30.400Z,-4.50
2019-01-06T14:02:05.970Z,-4.40
2019-01-06T14:04:43.582Z,-4.40
2019-01-06T14:07:30.683Z,-4.40
2019-01-06T14:10:02.408Z,-4.40
2019-01-06T14:12:35.356Z,-4.50
2019-01-06T14:15:29.063Z,-4.50
2019-01-06T14:18:17.548Z,-4.40
2019-01-06T14:20:52.455Z,-4.50
2019-01-06T14:23:22.886Z,-4.60
2019-01-06T14:26:13.328Z,-4.50
2019-01-06T14:28:44.258Z,-4.50
2019-01-06T14:31:16.184Z,-4.60
2019-01-06T14:34:02.896Z,-4.50
2019-01-06T14:36:48.248Z,-4.50
2019-01-06T14:39:29.822Z,-4.40
2019-01-06T14:42:18.743Z,-4.50
2019-01-06T14:44:53.995Z,-4.60
2019-01-06T14:47:43.908Z,-4.50
2019-01-06T14:50:18.070Z,-4.60
2019-01-06T14:52:54.846Z,-4.60
2019-01-06T14:55:46.514Z,-4.50
2019-01-06T14:58:26.292Z,-4.70
2019-01-06T15:01:09.254Z,-4.60
2019-01-06T15:03:44.312Z,-4.60
2019-01-06T15:06:16.892Z,-4.70
2019-01-06T15:09:08.796Z,-4.70
2019-01-06T15:11:44.325Z,-4.80
2019-01-06T15:17:28.271Z,-4.80
2019-01-06T15:20:04.811Z,-4.70
2019-01-06T15:22:46.839Z,-4.80
2019-01-06T15:25:31.323Z,-4.80
2019-01-06T15:28:22.571Z,-4.80
2019-01-06T15:31:00.537Z,-4.70
2019-01-06T15:33:48.908Z,-4.80
2019-01-06T15:36:35.165Z,-4.90
2019-01-06T15:39:11.389Z,-4.80
2019-01-06T15:42:02.459Z,-4.90
2019-01-06T15:44:37.176Z,-5.00
2019-01-06T15:47:17.330Z,-5.10
2019-01-06T15:50:08.578Z,-5.10
2019-01-06T15:53:00.166Z,-5.20
2019-01-06T15:55:51.723Z,-5.30
2019-01-06T15:58:48.101Z,-5.20
2019-01-06T16:01:34.737Z,-5.30
2019-01-06T16:04:16.737Z,-5.30
2019-01-06T16:07:10.444Z,-5.30
2019-01-06T16:09:42.274Z,-5.30
2019-01-06T16:12:27.493Z,-5.30
2019-01-06T16:15:01.969Z,-5.40
2019-01-06T16:17:42.139Z,-5.30
2019-01-06T16:20:16.343Z,-5.30
2019-01-06T16:22:48.898Z,-5.30
2019-01-06T16:25:20.466Z,-5.30
2019-01-06T16:28:02.695Z,-5.20
2019-01-06T16:30:43.804Z,-5.20
2019-01-06T16:33:31.563Z,-5.30
2019-01-06T16:36:20.148Z,-5.30
2019-01-06T16:38:53.157Z,-5.30
2019-01-06T16:41:26.308Z,-5.30
2019-01-06T16:44:28.616Z,-5.30
2019-01-06T16:47:11.062Z,-5.30
2019-01-06T16:49:55.340Z,-5.30
2019-01-06T16:52:30.144Z,-5.30
2019-01-06T16:55:00.348Z,-5.30
2019-01-06T16:57:36.507Z,-5.30
2019-01-06T17:00:15.421Z,-5.40
2019-01-06T17:02:48.950Z,-5.40
2019-01-06T17:05:35.361Z,-5.40
2019-01-06T17:08:29.961Z,-5.30
2019-01-06T17:11:07.925Z,-5.50
2019-01-06T17:13:54.369Z,-5.40
2019-01-06T17:16:28.846Z,-5.50
2019-01-06T17:19:03.632Z,-5.50
2019-01-06T17:21:52.464Z,-5.50
2019-01-06T17:24:31.956Z,-5.40
2019-01-06T17:27:02.453Z,-5.50
2019-01-06T17:29:33.978Z,-5.60
2019-01-06T17:32:06.375Z,-5.60
2019-01-06T17:34:44.241Z,-5.60
2019-01-06T17:37:38.103Z,-5.40
2019-01-06T17:40:18.028Z,-5.50
2019-01-06T17:42:53.957Z,-5.40
2019-01-06T17:45:40.564Z,-5.40
2019-01-06T17:48:10.940Z,-5.50
2019-01-06T17:50:53.107Z,-5.50
2019-01-06T17:53:39.999Z,-5.50
2019-01-06T17:56:16.538Z,-5.70
2019-01-06T17:58:59.793Z,-5.70
2019-01-06T18:01:38.895Z,-5.70
2019-01-06T18:04:28.503Z,-5.60
2019-01-06T18:07:05.332Z,-5.50
2019-01-06T18:09:35.863Z,-5.70
2019-01-06T18:12:22.976Z,-5.50
2019-01-06T18:15:11.474Z,-5.50
2019-01-06T18:17:41.523Z,-5.50
2019-01-06T18:20:21.253Z,-5.60
2019-01-06T18:22:57.246Z,-5.50
2019-01-06T18:25:43.769Z,-5.60
2019-01-06T18:28:26.197Z,-5.70
2019-01-06T18:30:56.636Z,-5.60
2019-01-06T18:33:38.609Z,-5.60
2019-01-06T18:36:11.627Z,-5.60
2019-01-06T18:38:51.678Z,-5.70
2019-01-06T18:41:38.312Z,-5.60
2019-01-06T18:44:27.079Z,-5.60
2019-01-06T18:46:57.530Z,-5.70
2019-01-06T18:49:30.772Z,-5.60
2019-01-06T18:52:16.684Z,-5.60
2019-01-06T18:54:47.170Z,-5.60
2019-01-06T18:57:33.920Z,-5.70
2019-01-06T19:00:13.001Z,-5.60
2019-01-06T19:02:46.189Z,-5.60
2019-01-06T19:05:19.080Z,-5.60
2019-01-06T19:07:57.334Z,-5.60
2019-01-06T19:10:30.666Z,-5.70
2019-01-06T19:13:04.283Z,-5.70
2019-01-06T19:15:49.983Z,-5.60
2019-01-06T19:18:20.731Z,-5.60
2019-01-06T19:21:07.236Z,-5.70
2019-01-06T19:23:54.021Z,-5.80
2019-01-06T19:26:26.166Z,-5.90
2019-01-06T19:29:04.266Z,-5.80
2019-01-06T19:31:52.194Z,-5.80
2019-01-06T19:34:39.490Z,-6.00
2019-01-06T19:37:25.561Z,-5.90
2019-01-06T19:39:55.971Z,-6.00
2019-01-06T19:42:43.535Z,-5.90
2019-01-06T19:45:29.591Z,-6.00
2019-01-06T19:48:05.622Z,-6.10
2019-01-06T19:50:50.871Z,-6.00
2019-01-06T19:53:24.111Z,-6.00
2019-01-06T19:56:03.969Z,-6.00
2019-01-06T19:58:49.630Z,-6.10
2019-01-06T20:01:29.882Z,-6.10
2019-01-06T20:04:12.073Z,-6.10
2019-01-06T20:06:58.143Z,-6.00
2019-01-06T20:09:31.840Z,-6.00
2019-01-06T20:12:05.300Z,-6.00
2019-01-06T20:14:53.618Z,-6.00
2019-01-06T20:17:36.604Z,-6.00
2019-01-06T20:20:13.665Z,-6.00
2019-01-06T20:22:47.074Z,-6.00
2019-01-06T20:25:19.547Z,-6.10
2019-01-06T20:27:59.464Z,-6.20
2019-01-06T20:30:29.983Z,-6.20
2019-01-06T20:33:03.195Z,-6.20
2019-01-06T20:35:48.501Z,-6.20
2019-01-06T20:38:28.407Z,-6.20
2019-01-06T20:41:01.841Z,-6.20
2019-01-06T20:43:41.541Z,-6.30
2019-01-06T20:46:28.661Z,-6.20
2019-01-06T20:49:05.124Z,-6.30
2019-01-06T20:51:52.264Z,-6.20
2019-01-06T20:54:39.530Z,-6.10
2019-01-06T20:57:24.924Z,-6.20
2019-01-06T21:00:11.712Z,-6.20
2019-01-06T21:02:54.945Z,-6.20
2019-01-06T21:05:28.314Z,-6.20
2019-01-06T21:08:01.562Z,-6.20
2019-01-06T21:10:37.957Z,-6.10
2019-01-06T21:13:24.948Z,-6.10
2019-01-06T21:16:13.556Z,-6.20
2019-01-06T21:19:00.175Z,-6.30
2019-01-06T21:21:39.597Z,-6.20
2019-01-06T21:24:10.328Z,-6.30
2019-01-06T21:26:59.073Z,-6.50
2019-01-06T21:29:32.080Z,-6.50
2019-01-06T21:32:05.208Z,-6.50
2019-01-06T21:34:52.251Z,-6.50
2019-01-06T21:37:38.607Z,-6.70
2019-01-06T21:40:17.931Z,-6.50
2019-01-06T21:42:48.216Z,-6.40
2019-01-06T21:45:24.912Z,-6.60
2019-01-06T21:47:55.117Z,-6.50
2019-01-06T21:50:31.590Z,-6.60
2019-01-06T21:53:01.846Z,-6.90
2019-01-06T21:55:43.714Z,-6.80
2019-01-06T21:58:26.555Z,-7.00
2019-01-06T22:01:08.385Z,-6.80
2019-01-06T22:03:54.705Z,-6.60
2019-01-06T22:06:41.172Z,-6.50
2019-01-06T22:09:29.998Z,-6.60
2019-01-06T22:12:12.512Z,-6.80
2019-01-06T22:14:45.799Z,-7.00
2019-01-06T22:17:32.226Z,-6.90
2019-01-06T22:20:02.765Z,-6.80
2019-01-06T22:22:51.259Z,-6.70
2019-01-06T22:25:37.836Z,-6.80
2019-01-06T22:28:07.911Z,-6.70
2019-01-06T22:30:54.710Z,-6.60
2019-01-06T22:33:42.694Z,-6.60
2019-01-06T22:36:18.585Z,-6.60
2019-01-06T22:38:51.221Z,-6.50
2019-01-06T22:41:27.213Z,-6.80
2019-01-06T22:43:57.260Z,-6.90
2019-01-06T22:46:43.969Z,-6.80
2019-01-06T22:49:14.354Z,-6.80
2019-01-06T22:51:53.388Z,-6.60
2019-01-06T22:54:39.776Z,-6.60
2019-01-06T22:57:25.071Z,-6.70
2019-01-06T23:00:02.116Z,-6.70
2019-01-06T23:02:32.470Z,-6.80
2019-01-06T23:05:12.945Z,-6.70
2019-01-06T23:07:46.075Z,-6.60
2019-01-06T23:10:21.893Z,-6.70
2019-01-06T23:13:07.022Z,-6.70
2019-01-06T23:15:37.055Z,-6.70
2019-01-06T23:18:24.112Z,-6.80
2019-01-06T23:21:10.671Z,-6.80
2019-01-06T23:23:43.835Z,-6.80
2019-01-06T23:26:28.939Z,-6.80
2019-01-06T23:29:14.324Z,-6.80
2019-01-06T23:32:02.387Z,-6.70
2019-01-06T23:34:41.843Z,-6.70
2019-01-06T23:37:11.955Z,-6.80
2019-01-06T23:39:47.507Z,-6.90
2019-01-06T23:42:23.639Z,-6.80
2019-01-06T23:45:10.738Z,-6.70
2019-01-06T23:47:43.725Z,-6.70
2019-01-06T23:50:14.072Z,-6.70
2019-01-06T23:52:49.845Z,-6.70
2019-01-06T23:55:26.039Z,-6.60
2019-01-06T23:58:12.816Z,-6.60
